Nissyomaru — JD2650 — position and weather

sailwx.info

Track history (hours):
 
Tides and Currents Weather Stations Pressure Air Temp Water Temp Dewpoint Dewpoint Depression Visibility Wind Speed Wind Dir Waves Ship Positions

Nissyomaru

Last reported at 2014-Aug-18 20:13 UTC. Time now 2014-Aug-21 06:21 UTC.
Position N 35°56' E 141°00'.

Length 75 m; draft 4 m.

Type: Cargo ship. MMSI: 431000572.

Date/timePositionNaut miles runAvg speedWind from/ knotsBaromVisibWave heightAir tempDewpointWater temp
2014-Aug-18 20:13N 35°56' E 141°00'2012.2
2014-Aug-18 18:33N 35°37' E 140°52'1312.5
2014-Aug-18 17:30N 35°26' E 140°42'1312.3
2014-Aug-18 16:26N 35°15' E 140°33'1412.8
2014-Aug-18 15:21N 35°04' E 140°22'1012.8
2014-Aug-18 14:33N 34°59' E 140°11'1313.2
2014-Aug-18 13:33N 34°53' E 139°58'1211.5
2014-Aug-18 12:33N 34°56' E 139°44'1211.7
2014-Aug-18 11:33N 35°08' E 139°45'1111.3
2014-Aug-18 10:33N 35°19' E 139°43'7 6.5
2014-Aug-18 09:33N 35°24' E 139°49'4 4.1
2014-Aug-18 08:29N 35°22' E 139°54'0 0.0
2014-Aug-18 07:29N 35°22' E 139°54'0 0.0
2014-Aug-18 06:29N 35°22' E 139°54'0 0.0
2014-Aug-18 05:32N 35°22' E 139°54'0 0.0
2014-Aug-18 04:32N 35°22' E 139°54'0 0.0
2014-Aug-18 03:32N 35°22' E 139°54'0 0.0
2014-Aug-18 02:32N 35°22' E 139°54'0 0.0
2014-Aug-18 01:32N 35°22' E 139°54'0 0.0
2014-Aug-18 00:29N 35°22' E 139°54'0 0.0
2014-Aug-17 18:32N 35°22' E 139°54'0 0.0
2014-Aug-17 17:32N 35°22' E 139°54'0 0.0
2014-Aug-17 16:32N 35°22' E 139°54'0 0.0
2014-Aug-17 15:29N 35°22' E 139°54'0 0.0
2014-Aug-17 14:32N 35°22' E 139°54'0 0.0
2014-Aug-17 13:29N 35°22' E 139°54'0 0.0
2014-Aug-17 12:29N 35°22' E 139°54'0 0.0
2014-Aug-17 11:29N 35°22' E 139°54'0 0.0
2014-Aug-17 10:29N 35°22' E 139°54'0 0.0
2014-Aug-17 09:29N 35°22' E 139°54'0 0.0
2014-Aug-17 08:32N 35°22' E 139°54'0 0.0
2014-Aug-17 07:32N 35°22' E 139°54'0 0.0
2014-Aug-17 06:32N 35°22' E 139°54'0 0.0
2014-Aug-17 05:32N 35°22' E 139°54'0 0.0
2014-Aug-17 04:26N 35°22' E 139°54'0 0.0
2014-Aug-17 03:29N 35°22' E 139°54'0 0.0
2014-Aug-17 02:32N 35°22' E 139°54'0 0.0
2014-Aug-17 01:32N 35°22' E 139°54'0 0.0
2014-Aug-17 00:32N 35°22' E 139°54'0 0.0
2014-Aug-16 23:29N 35°22' E 139°54'0 0.0
2014-Aug-16 22:29N 35°22' E 139°54'0 0.0
2014-Aug-16 21:32N 35°22' E 139°54'0 0.0
2014-Aug-16 20:32N 35°22' E 139°54'0 0.0
2014-Aug-16 19:29N 35°22' E 139°54'0 0.0
2014-Aug-16 18:29N 35°22' E 139°54'0 0.0
2014-Aug-16 17:29N 35°22' E 139°54'0 0.0
2014-Aug-16 16:32N 35°22' E 139°54'0 0.0
2014-Aug-16 15:29N 35°22' E 139°54'0 0.0
2014-Aug-16 14:29N 35°22' E 139°54'0 0.0
2014-Aug-16 13:32N 35°22' E 139°54'0 0.0
2014-Aug-16 12:29N 35°22' E 139°54'0 0.0
2014-Aug-16 11:32N 35°22' E 139°54'0 0.0
2014-Aug-16 10:29N 35°22' E 139°54'0 0.0
2014-Aug-16 09:29N 35°22' E 139°54'0 0.0
2014-Aug-16 08:29N 35°22' E 139°54'0 0.0
2014-Aug-16 07:23N 35°22' E 139°54'0 0.0
2014-Aug-16 06:29N 35°22' E 139°54'0 0.0
2014-Aug-16 05:32N 35°22' E 139°54'0 0.0
2014-Aug-16 04:32N 35°22' E 139°54'0 0.0
2014-Aug-16 03:33N 35°22' E 139°54'5 4.7
2014-Aug-16 02:33N 35°25' E 139°49'0 0.0
2014-Aug-16 01:33N 35°25' E 139°49'0 0.0
2014-Aug-16 00:34N 35°25' E 139°49'0 0.0
2014-Aug-15 23:33N 35°25' E 139°49'0 0.0
2014-Aug-15 22:33N 35°25' E 139°49'0 0.0
2014-Aug-15 21:28N 35°25' E 139°49'0 0.0
2014-Aug-15 20:32N 35°25' E 139°49'0 0.0
2014-Aug-15 19:32N 35°25' E 139°49'0 0.0
2014-Aug-15 18:33N 35°25' E 139°49'0 0.0
2014-Aug-15 17:34N 35°25' E 139°49'0 0.0
2014-Aug-15 16:33N 35°25' E 139°49'0 0.0
2014-Aug-15 15:33N 35°25' E 139°49'0 0.0
2014-Aug-15 14:33N 35°25' E 139°49'0 0.0
2014-Aug-15 13:33N 35°25' E 139°49'8 8.4
2014-Aug-15 12:33N 35°17' E 139°46'1211.9
2014-Aug-15 11:33N 35°05' E 139°43'  
2014-Aug-12 12:27N 34°46' E 139°43'1312.4
2014-Aug-12 11:26N 34°52' E 139°57'1011.5
2014-Aug-12 10:33N 34°57' E 140°07'23 9.6
2014-Aug-12 08:07N 35°12' E 140°29'47 9.7
2014-Aug-12 03:15N 35°57' E 140°44'4 2.3
2014-Aug-12 01:32N 35°55' E 140°40'0 0.0
2014-Aug-11 21:32N 35°55' E 140°40'  
Track history (hours):
 
Tides and Currents Weather Stations Pressure Air Temp Water Temp Dewpoint Dewpoint Depression Visibility Wind Speed Wind Dir Waves Ship Positions

Nissyomaru

Last reported at 2014-Aug-18 20:13 UTC. Time now 2014-Aug-21 06:21 UTC.
Position N 35°56' E 141°00'.

Length 75 m; draft 4 m.

Type: Cargo ship. MMSI: 431000572.

Date/timePositionNaut miles runAvg speedWind from/ knotsBaromVisibWave heightAir tempDewpointWater temp
2014-Aug-18 20:13N 35°56' E 141°00'2012.2
2014-Aug-18 18:33N 35°37' E 140°52'1312.5
2014-Aug-18 17:30N 35°26' E 140°42'1312.3
2014-Aug-18 16:26N 35°15' E 140°33'1412.8
2014-Aug-18 15:21N 35°04' E 140°22'1012.8
2014-Aug-18 14:33N 34°59' E 140°11'1313.2
2014-Aug-18 13:33N 34°53' E 139°58'1211.5
2014-Aug-18 12:33N 34°56' E 139°44'1211.7
2014-Aug-18 11:33N 35°08' E 139°45'1111.3
2014-Aug-18 10:33N 35°19' E 139°43'7 6.5
2014-Aug-18 09:33N 35°24' E 139°49'4 4.1
2014-Aug-18 08:29N 35°22' E 139°54'0 0.0
2014-Aug-18 07:29N 35°22' E 139°54'0 0.0
2014-Aug-18 06:29N 35°22' E 139°54'0 0.0
2014-Aug-18 05:32N 35°22' E 139°54'0 0.0
2014-Aug-18 04:32N 35°22' E 139°54'0 0.0
2014-Aug-18 03:32N 35°22' E 139°54'0 0.0
2014-Aug-18 02:32N 35°22' E 139°54'0 0.0
2014-Aug-18 01:32N 35°22' E 139°54'0 0.0
2014-Aug-18 00:29N 35°22' E 139°54'0 0.0
2014-Aug-17 18:32N 35°22' E 139°54'0 0.0
2014-Aug-17 17:32N 35°22' E 139°54'0 0.0
2014-Aug-17 16:32N 35°22' E 139°54'0 0.0
2014-Aug-17 15:29N 35°22' E 139°54'0 0.0
2014-Aug-17 14:32N 35°22' E 139°54'0 0.0
2014-Aug-17 13:29N 35°22' E 139°54'0 0.0
2014-Aug-17 12:29N 35°22' E 139°54'0 0.0
2014-Aug-17 11:29N 35°22' E 139°54'0 0.0
2014-Aug-17 10:29N 35°22' E 139°54'0 0.0
2014-Aug-17 09:29N 35°22' E 139°54'0 0.0
2014-Aug-17 08:32N 35°22' E 139°54'0 0.0
2014-Aug-17 07:32N 35°22' E 139°54'0 0.0
2014-Aug-17 06:32N 35°22' E 139°54'0 0.0
2014-Aug-17 05:32N 35°22' E 139°54'0 0.0
2014-Aug-17 04:26N 35°22' E 139°54'0 0.0
2014-Aug-17 03:29N 35°22' E 139°54'0 0.0
2014-Aug-17 02:32N 35°22' E 139°54'0 0.0
2014-Aug-17 01:32N 35°22' E 139°54'0 0.0
2014-Aug-17 00:32N 35°22' E 139°54'0 0.0
2014-Aug-16 23:29N 35°22' E 139°54'0 0.0
2014-Aug-16 22:29N 35°22' E 139°54'0 0.0
2014-Aug-16 21:32N 35°22' E 139°54'0 0.0
2014-Aug-16 20:32N 35°22' E 139°54'0 0.0
2014-Aug-16 19:29N 35°22' E 139°54'0 0.0
2014-Aug-16 18:29N 35°22' E 139°54'0 0.0
2014-Aug-16 17:29N 35°22' E 139°54'0 0.0
2014-Aug-16 16:32N 35°22' E 139°54'0 0.0
2014-Aug-16 15:29N 35°22' E 139°54'0 0.0
2014-Aug-16 14:29N 35°22' E 139°54'0 0.0
2014-Aug-16 13:32N 35°22' E 139°54'0 0.0
2014-Aug-16 12:29N 35°22' E 139°54'0 0.0
2014-Aug-16 11:32N 35°22' E 139°54'0 0.0
2014-Aug-16 10:29N 35°22' E 139°54'0 0.0
2014-Aug-16 09:29N 35°22' E 139°54'0 0.0
2014-Aug-16 08:29N 35°22' E 139°54'0 0.0
2014-Aug-16 07:23N 35°22' E 139°54'0 0.0
2014-Aug-16 06:29N 35°22' E 139°54'0 0.0
2014-Aug-16 05:32N 35°22' E 139°54'0 0.0
2014-Aug-16 04:32N 35°22' E 139°54'0 0.0
2014-Aug-16 03:33N 35°22' E 139°54'5 4.7
2014-Aug-16 02:33N 35°25' E 139°49'0 0.0
2014-Aug-16 01:33N 35°25' E 139°49'0 0.0
2014-Aug-16 00:34N 35°25' E 139°49'0 0.0
2014-Aug-15 23:33N 35°25' E 139°49'0 0.0
2014-Aug-15 22:33N 35°25' E 139°49'0 0.0
2014-Aug-15 21:28N 35°25' E 139°49'0 0.0
2014-Aug-15 20:32N 35°25' E 139°49'0 0.0
2014-Aug-15 19:32N 35°25' E 139°49'0 0.0
2014-Aug-15 18:33N 35°25' E 139°49'0 0.0
2014-Aug-15 17:34N 35°25' E 139°49'0 0.0
2014-Aug-15 16:33N 35°25' E 139°49'0 0.0
2014-Aug-15 15:33N 35°25' E 139°49'0 0.0
2014-Aug-15 14:33N 35°25' E 139°49'0 0.0
2014-Aug-15 13:33N 35°25' E 139°49'8 8.4
2014-Aug-15 12:33N 35°17' E 139°46'1211.9
2014-Aug-15 11:33N 35°05' E 139°43'  
2014-Aug-12 12:27N 34°46' E 139°43'1312.4
2014-Aug-12 11:26N 34°52' E 139°57'1011.5
2014-Aug-12 10:33N 34°57' E 140°07'23 9.6
2014-Aug-12 08:07N 35°12' E 140°29'47 9.7
2014-Aug-12 03:15N 35°57' E 140°44'4 2.3
2014-Aug-12 01:32N 35°55' E 140°40'0 0.0
2014-Aug-11 21:32N 35°55' E 140°40'  

Dump ship's entire track history